Time;durP1;ratioP1;P1;durP2;ratioP2;P2;SDS_P1;SDS_P2;PMS_P1;PMS_P2;Temp;Humidity;BMP_temperature;BMP_pressure;BME280_temperature;BME280_humidity;BME280_pressure;Samples;Min_cycle;Max_cycle;Signal;HPM_P1;HPM_P2
2022/06/26 00:01:26;;;;;;;12.38;10.98;;;18.50;99.90;;;;;;5001272;28;20038;-84
2022/06/26 00:03:51;;;;;;;13.68;11.80;;;18.50;99.90;;;;;;4992064;28;20044;-85
2022/06/26 00:06:17;;;;;;;13.13;11.77;;;18.40;99.90;;;;;;4980364;28;20045;-85
2022/06/26 00:08:43;;;;;;;13.73;12.32;;;18.40;99.90;;;;;;4998939;28;20050;-84
2022/06/26 00:11:08;;;;;;;13.45;12.02;;;18.40;99.90;;;;;;4980618;28;20528;-84
2022/06/26 00:13:34;;;;;;;13.48;11.73;;;18.40;99.90;;;;;;5006208;28;20030;-84
2022/06/26 00:16:00;;;;;;;13.50;12.20;;;18.40;99.90;;;;;;4994712;28;20057;-85
2022/06/26 00:18:25;;;;;;;14.40;12.75;;;18.40;99.90;;;;;;4996512;28;20050;-84
2022/06/26 00:20:51;;;;;;;13.45;11.82;;;18.40;99.90;;;;;;5001162;28;20045;-85
2022/06/26 00:23:17;;;;;;;13.32;11.93;;;18.50;99.90;;;;;;5024353;28;20037;-84
2022/06/26 00:25:42;;;;;;;14.23;12.73;;;18.30;99.90;;;;;;4998446;28;20376;-84
2022/06/26 00:28:08;;;;;;;13.60;12.20;;;18.40;99.90;;;;;;5002403;28;20816;-84
2022/06/26 00:30:34;;;;;;;13.27;11.98;;;18.30;99.90;;;;;;4998319;28;20041;-84
2022/06/26 00:32:59;;;;;;;15.15;12.50;;;18.30;99.90;;;;;;4995184;28;20048;-84
2022/06/26 00:35:25;;;;;;;13.30;11.93;;;18.30;99.90;;;;;;5011898;28;20045;-84
2022/06/26 00:37:50;;;;;;;13.30;11.90;;;18.30;99.90;;;;;;4989977;28;20042;-85
2022/06/26 00:40:16;;;;;;;13.85;11.95;;;18.40;99.90;;;;;;4991794;28;20084;-84
2022/06/26 00:42:42;;;;;;;12.75;11.45;;;18.30;99.90;;;;;;5019406;28;20048;-85
2022/06/26 00:45:09;;;;;;;13.75;12.35;;;18.40;99.90;;;;;;4996340;28;20098;-84
2022/06/26 00:47:34;;;;;;;13.32;11.52;;;18.40;99.90;;;;;;4978398;28;20046;-84
2022/06/26 00:50:00;;;;;;;13.63;12.20;;;18.40;99.90;;;;;;5001904;28;20666;-84
2022/06/26 00:52:27;;;;;;;12.90;11.60;;;18.40;99.90;;;;;;5016405;28;20045;-85
2022/06/26 00:54:57;;;;;;;13.57;12.07;;;18.40;99.90;;;;;;4994814;28;20042;-85
2022/06/26 00:57:22;;;;;;;14.00;12.23;;;18.40;99.90;;;;;;4985227;28;20141;-85
2022/06/26 00:59:48;;;;;;;14.43;12.93;;;18.50;99.90;;;;;;4995907;28;20128;-85
2022/06/26 01:02:15;;;;;;;14.20;12.50;;;18.50;99.90;;;;;;5015519;28;20041;-85
2022/06/26 01:04:41;;;;;;;14.35;12.68;;;18.50;99.90;;;;;;4985846;28;20050;-86
2022/06/26 01:07:07;;;;;;;14.20;12.60;;;18.50;99.90;;;;;;5002345;28;20048;-86
2022/06/26 01:09:33;;;;;;;18.30;16.50;;;18.40;99.90;;;;;;5015834;28;20124;-85
2022/06/26 01:11:59;;;;;;;17.92;16.23;;;18.40;99.90;;;;;;5011555;28;20452;-85
2022/06/26 01:14:25;;;;;;;17.17;15.27;;;18.40;99.90;;;;;;4995641;28;20037;-85
2022/06/26 01:16:51;;;;;;;18.08;16.25;;;18.40;99.90;;;;;;5015027;28;20047;-85
2022/06/26 01:19:19;;;;;;;19.70;17.77;;;18.40;99.90;;;;;;4997903;28;20049;-86
2022/06/26 01:21:45;;;;;;;19.92;18.13;;;18.40;99.90;;;;;;4984881;28;20456;-86
2022/06/26 01:24:11;;;;;;;19.45;17.50;;;18.50;99.90;;;;;;4997926;28;20125;-86
2022/06/26 01:26:37;;;;;;;19.25;17.40;;;18.60;99.90;;;;;;4992191;28;20465;-85
2022/06/26 01:29:03;;;;;;;20.00;18.10;;;18.60;99.90;;;;;;4983163;28;20096;-84
2022/06/26 01:31:32;;;;;;;19.02;17.23;;;18.70;99.90;;;;;;5001688;28;20049;-85
2022/06/26 01:33:59;;;;;;;17.98;16.17;;;18.70;99.90;;;;;;4993041;28;20041;-85
2022/06/26 01:36:24;;;;;;;18.95;17.05;;;18.80;99.90;;;;;;5001117;28;20083;-86
2022/06/26 01:38:50;;;;;;;18.98;16.27;;;18.80;99.90;;;;;;4975888;28;20053;-86
2022/06/26 01:41:16;;;;;;;18.65;16.80;;;18.80;99.90;;;;;;5017708;28;20510;-85
2022/06/26 01:43:42;;;;;;;19.65;17.65;;;18.80;99.90;;;;;;5017676;28;20460;-86
2022/06/26 01:46:08;;;;;;;18.52;16.63;;;18.90;99.90;;;;;;5003508;28;20041;-86
2022/06/26 01:48:37;;;;;;;18.25;16.52;;;18.90;99.90;;;;;;5000168;28;20494;-86
2022/06/26 01:51:03;;;;;;;18.60;16.65;;;18.80;99.90;;;;;;4999830;28;20037;-85
2022/06/26 01:53:29;;;;;;;18.15;16.25;;;18.80;99.90;;;;;;4979685;28;20072;-86
2022/06/26 01:55:55;;;;;;;18.35;16.30;;;18.90;99.90;;;;;;4994724;28;20046;-86
2022/06/26 01:58:21;;;;;;;18.73;16.88;;;18.90;99.90;;;;;;4995725;28;20057;-86
2022/06/26 02:00:48;;;;;;;18.77;16.77;;;18.80;99.90;;;;;;4991623;28;20068;-87
2022/06/26 02:03:15;;;;;;;19.85;18.00;;;18.80;99.90;;;;;;5002707;28;20531;-87
2022/06/26 02:05:41;;;;;;;19.80;17.80;;;18.80;99.90;;;;;;5022057;28;20034;-86
2022/06/26 02:08:07;;;;;;;20.63;18.33;;;18.80;99.90;;;;;;4994757;28;20058;-88
2022/06/26 02:13:36;;;;;;;19.65;17.45;;;18.70;99.90;;;;;;5003976;28;20046;-88
2022/06/26 02:16:04;;;;;;;20.90;18.83;;;18.60;99.90;;;;;;5014058;28;20077;-88
2022/06/26 02:18:31;;;;;;;22.27;19.85;;;18.60;99.90;;;;;;5012415;28;20041;-86
2022/06/26 02:20:56;;;;;;;20.65;18.48;;;18.60;99.90;;;;;;4994003;28;20053;-87
2022/06/26 02:23:23;;;;;;;22.98;19.35;;;18.60;99.90;;;;;;4994899;28;20045;-88
2022/06/26 02:25:49;;;;;;;22.27;20.02;;;18.60;99.90;;;;;;4996888;28;20045;-89
2022/06/26 02:28:16;;;;;;;22.40;20.13;;;18.50;99.90;;;;;;4990671;28;20040;-88
2022/06/26 02:30:42;;;;;;;23.05;20.70;;;18.60;99.90;;;;;;4995206;28;20053;-88
2022/06/26 02:33:08;;;;;;;25.17;21.27;;;18.50;99.90;;;;;;5004426;28;20072;-88
2022/06/26 02:35:34;;;;;;;23.17;20.83;;;18.50;99.90;;;;;;4971506;28;20084;-89
2022/06/26 02:38:00;;;;;;;20.67;18.48;;;18.50;99.90;;;;;;5010876;28;20034;-87
2022/06/26 02:40:27;;;;;;;20.98;18.77;;;18.40;99.90;;;;;;4993980;28;20057;-88
2022/06/26 02:42:53;;;;;;;21.92;19.63;;;18.40;99.90;;;;;;4988512;28;20048;-87
2022/06/26 02:45:19;;;;;;;19.45;17.45;;;18.40;99.90;;;;;;5004383;28;20058;-88
2022/06/26 02:47:46;;;;;;;21.98;19.55;;;18.30;99.90;;;;;;5009691;28;20407;-86
2022/06/26 02:50:12;;;;;;;20.67;18.65;;;18.30;99.90;;;;;;4998591;28;20046;-87
2022/06/26 02:52:39;;;;;;;19.88;18.00;;;18.30;99.90;;;;;;5019167;28;20502;-88
2022/06/26 02:55:05;;;;;;;18.42;16.48;;;18.30;99.90;;;;;;4989072;28;20053;-87
2022/06/26 02:57:31;;;;;;;18.35;15.48;;;18.20;99.90;;;;;;4983115;28;20073;-87
2022/06/26 02:59:56;;;;;;;18.27;16.38;;;18.20;99.90;;;;;;4998413;28;20137;-87
2022/06/26 03:02:25;;;;;;;17.70;15.68;;;18.10;99.90;;;;;;4996717;28;20042;-87
2022/06/26 03:04:53;;;;;;;17.90;15.75;;;18.10;99.90;;;;;;4997573;28;20049;-87
2022/06/26 03:07:19;;;;;;;17.77;15.80;;;18.00;99.90;;;;;;5017188;28;20057;-86
2022/06/26 03:09:45;;;;;;;17.35;15.55;;;18.00;99.90;;;;;;4980748;28;20147;-87
2022/06/26 03:12:11;;;;;;;18.02;15.55;;;17.90;99.90;;;;;;4993928;28;20093;-86
2022/06/26 03:14:37;;;;;;;17.73;15.35;;;17.90;99.90;;;;;;4978265;28;20070;-87
2022/06/26 03:17:03;;;;;;;18.90;16.10;;;17.90;99.90;;;;;;4997128;28;20399;-87
2022/06/26 03:19:28;;;;;;;17.95;16.00;;;17.80;99.90;;;;;;5000946;28;20056;-86
2022/06/26 03:21:54;;;;;;;17.63;15.77;;;17.80;99.90;;;;;;4994767;28;20034;-85
2022/06/26 03:24:20;;;;;;;16.95;15.25;;;17.70;99.90;;;;;;4985378;28;20151;-87
2022/06/26 03:26:47;;;;;;;17.20;15.25;;;17.70;99.90;;;;;;4996554;28;20048;-85
2022/06/26 03:29:12;;;;;;;16.45;14.75;;;17.70;99.90;;;;;;4998216;28;20149;-86
2022/06/26 03:31:39;;;;;;;14.98;13.38;;;17.70;99.90;;;;;;4997754;28;20117;-86
2022/06/26 03:34:05;;;;;;;16.15;12.52;;;17.70;99.90;;;;;;4990293;28;20057;-86
2022/06/26 03:36:32;;;;;;;13.55;11.88;;;17.60;99.90;;;;;;4998130;28;20033;-86
2022/06/26 03:38:58;;;;;;;14.85;12.55;;;17.60;99.90;;;;;;4973205;28;20129;-86
2022/06/26 03:41:24;;;;;;;15.55;11.73;;;17.60;99.90;;;;;;4997065;28;20053;-85
2022/06/26 03:43:50;;;;;;;14.70;11.48;;;17.50;99.90;;;;;;5000876;28;20395;-86
2022/06/26 03:46:16;;;;;;;12.77;10.68;;;17.50;99.90;;;;;;5002427;28;20049;-87
2022/06/26 03:48:41;;;;;;;13.13;11.18;;;17.50;99.90;;;;;;4996767;28;20471;-86
2022/06/26 03:51:08;;;;;;;14.40;11.02;;;17.50;99.90;;;;;;4977125;28;20042;-86
2022/06/26 03:53:34;;;;;;;13.82;11.63;;;17.50;99.90;;;;;;4996781;28;20091;-87
2022/06/26 03:56:01;;;;;;;13.68;11.15;;;17.40;99.90;;;;;;4992419;28;20058;-87
2022/06/26 03:58:27;;;;;;;14.27;10.90;;;17.50;99.90;;;;;;4997363;28;20049;-87
2022/06/26 04:00:53;;;;;;;15.07;11.23;;;17.40;99.90;;;;;;4980703;28;20058;-86
2022/06/26 04:03:19;;;;;;;13.18;11.60;;;17.30;99.90;;;;;;4977284;28;20551;-87
2022/06/26 04:05:45;;;;;;;13.43;10.85;;;17.40;99.90;;;;;;4993337;28;20108;-86
2022/06/26 04:08:11;;;;;;;13.10;10.48;;;17.30;99.90;;;;;;4996860;28;20042;-87
2022/06/26 04:10:37;;;;;;;14.02;10.43;;;17.30;99.90;;;;;;4973602;28;20140;-87
2022/06/26 04:13:05;;;;;;;12.40;10.02;;;17.30;99.90;;;;;;4987873;28;20567;-87
2022/06/26 04:15:32;;;;;;;13.43;10.73;;;17.30;99.90;;;;;;4981530;28;20046;-87
2022/06/26 04:17:58;;;;;;;14.32;10.05;;;17.20;99.90;;;;;;4989372;28;20042;-87
2022/06/26 04:20:25;;;;;;;10.93;9.38;;;17.20;99.90;;;;;;4988143;28;20084;-86
2022/06/26 04:23:02;;;;;;;13.48;9.18;;;17.20;99.90;;;;;;4995106;28;20049;-87
2022/06/26 04:25:29;;;;;;;11.27;8.27;;;17.20;99.90;;;;;;4986637;28;20057;-87
2022/06/26 04:27:55;;;;;;;12.65;9.13;;;17.20;99.90;;;;;;4973492;28;20092;-87
2022/06/26 04:30:22;;;;;;;11.38;8.57;;;17.10;99.90;;;;;;5005237;28;20448;-87
2022/06/26 04:32:48;;;;;;;12.70;8.60;;;17.10;99.90;;;;;;4992880;28;20038;-87
2022/06/26 04:35:13;;;;;;;10.02;8.00;;;17.10;99.90;;;;;;4985238;28;20096;-87
2022/06/26 04:37:40;;;;;;;12.15;8.23;;;17.10;99.90;;;;;;4998557;28;20049;-86
2022/06/26 04:40:08;;;;;;;10.50;8.18;;;17.00;99.90;;;;;;4987501;28;20139;-87
2022/06/26 04:42:34;;;;;;;10.45;8.65;;;17.00;99.90;;;;;;4993296;28;20455;-86
2022/06/26 04:45:00;;;;;;;10.65;8.68;;;17.00;99.90;;;;;;5012144;28;20394;-86
2022/06/26 04:47:26;;;;;;;11.50;8.45;;;17.00;99.90;;;;;;4988405;28;20069;-87
2022/06/26 04:49:52;;;;;;;12.27;8.82;;;17.00;99.90;;;;;;4979590;28;20537;-87
2022/06/26 04:52:17;;;;;;;11.10;9.20;;;17.00;99.90;;;;;;4999721;28;20042;-87
2022/06/26 04:54:44;;;;;;;13.18;9.40;;;17.00;99.90;;;;;;5021520;28;20042;-86
2022/06/26 04:57:10;;;;;;;11.85;9.50;;;17.10;99.90;;;;;;4998659;28;20054;-87
2022/06/26 04:59:46;;;;;;;11.95;9.85;;;17.10;99.90;;;;;;4980651;28;20057;-88
2022/06/26 05:02:12;;;;;;;12.50;10.00;;;17.20;99.90;;;;;;4976313;28;20402;-87
2022/06/26 05:04:38;;;;;;;13.55;10.10;;;17.20;99.90;;;;;;5012534;28;20045;-89
2022/06/26 05:07:04;;;;;;;11.40;9.45;;;17.30;99.90;;;;;;4974788;28;20053;-89
2022/06/26 05:09:30;;;;;;;11.13;9.55;;;17.40;99.90;;;;;;4996534;28;20081;-91
2022/06/26 05:11:57;;;;;;;11.93;9.95;;;17.40;99.90;;;;;;4981503;28;20054;-90
2022/06/26 05:14:23;;;;;;;12.18;9.68;;;17.50;99.90;;;;;;5000951;28;20037;-88
2022/06/26 05:16:49;;;;;;;12.27;8.52;;;17.60;99.90;;;;;;5018672;28;20050;-93
2022/06/26 05:19:15;;;;;;;12.43;9.70;;;17.70;99.90;;;;;;5006447;28;20376;-90
2022/06/26 05:21:40;;;;;;;11.10;8.88;;;17.80;99.90;;;;;;4988283;28;20175;-90
2022/06/26 05:24:06;;;;;;;12.35;10.18;;;17.80;99.90;;;;;;5014167;28;20081;-89
2022/06/26 05:26:32;;;;;;;12.38;10.52;;;17.80;99.90;;;;;;5004499;28;20046;-89
2022/06/26 05:28:58;;;;;;;13.07;11.20;;;17.90;99.90;;;;;;4992986;28;20040;-88
2022/06/26 05:31:24;;;;;;;15.32;11.98;;;17.80;99.90;;;;;;5009647;28;20445;-88
2022/06/26 05:33:50;;;;;;;14.30;12.48;;;17.80;99.90;;;;;;5001725;28;20045;-88
2022/06/26 05:36:16;;;;;;;16.30;13.43;;;17.80;99.90;;;;;;4994462;28;20405;-87
2022/06/26 05:38:42;;;;;;;17.27;14.55;;;17.80;99.90;;;;;;5009903;28;20049;-88
2022/06/26 05:41:08;;;;;;;17.90;16.00;;;17.90;99.90;;;;;;4995589;28;20085;-88
2022/06/26 05:43:34;;;;;;;19.63;15.02;;;17.80;99.90;;;;;;4985503;28;20477;-88
2022/06/26 05:46:00;;;;;;;17.95;16.08;;;17.70;99.90;;;;;;4995831;28;20101;-90
2022/06/26 05:48:26;;;;;;;19.77;16.70;;;17.70;99.90;;;;;;4995313;28;20076;-89
2022/06/26 05:50:52;;;;;;;17.20;15.15;;;17.70;99.90;;;;;;4992136;28;20447;-88
2022/06/26 05:53:18;;;;;;;16.90;14.70;;;17.70;99.90;;;;;;4980264;28;20074;-88
2022/06/26 05:55:45;;;;;;;16.00;14.20;;;17.70;99.90;;;;;;4978040;28;20415;-89
2022/06/26 05:58:11;;;;;;;16.85;15.02;;;17.70;99.90;;;;;;4974567;28;21594;-88
2022/06/26 06:00:38;;;;;;;17.45;14.75;;;17.70;99.90;;;;;;5001746;28;20054;-88
2022/06/26 06:03:04;;;;;;;16.65;15.02;;;17.70;99.90;;;;;;4993730;28;21132;-86
2022/06/26 06:05:30;;;;;;;17.13;14.77;;;17.80;99.90;;;;;;5010505;28;20042;-85
2022/06/26 06:07:56;;;;;;;16.50;14.35;;;17.80;99.90;;;;;;5011073;28;20096;-86
2022/06/26 06:10:24;;;;;;;18.65;15.57;;;17.80;99.90;;;;;;5003072;28;20049;-85
2022/06/26 06:12:50;;;;;;;16.90;15.07;;;17.90;99.90;;;;;;5014644;28;20076;-85
2022/06/26 06:15:17;;;;;;;15.80;14.20;;;18.00;99.90;;;;;;4999980;28;20054;-86
2022/06/26 06:17:44;;;;;;;16.27;14.40;;;18.10;99.90;;;;;;4973222;28;20042;-84
2022/06/26 06:20:19;;;;;;;16.20;14.60;;;18.10;99.90;;;;;;4971699;28;20049;-85
2022/06/26 06:23:07;;;;;;;17.50;15.57;;;18.20;99.90;;;;;;4983831;28;20045;-86
2022/06/26 06:25:33;;;;;;;17.33;15.48;;;18.20;99.90;;;;;;5007028;28;20750;-86
2022/06/26 06:27:59;;;;;;;17.35;15.65;;;18.30;99.90;;;;;;4990076;28;20042;-85
2022/06/26 06:30:25;;;;;;;18.67;16.75;;;18.30;99.90;;;;;;4993094;28;20060;-85
2022/06/26 06:32:50;;;;;;;18.52;16.65;;;18.30;99.90;;;;;;4994785;28;20375;-85
2022/06/26 06:35:16;;;;;;;17.85;15.95;;;18.30;99.90;;;;;;5015735;28;20042;-87
2022/06/26 06:37:43;;;;;;;18.02;16.23;;;18.40;99.90;;;;;;5011772;28;20092;-86
2022/06/26 06:40:11;;;;;;;18.05;16.15;;;18.40;99.90;;;;;;4993631;28;20126;-86
2022/06/26 06:42:36;;;;;;;18.23;16.33;;;18.40;99.90;;;;;;5012076;28;20525;-85
2022/06/26 06:45:03;;;;;;;18.08;16.17;;;18.40;99.90;;;;;;4978827;28;20042;-85
2022/06/26 06:47:28;;;;;;;17.58;15.77;;;18.40;99.90;;;;;;4992820;28;20458;-84
2022/06/26 06:49:54;;;;;;;18.13;16.23;;;18.40;99.90;;;;;;4989941;28;20132;-86
2022/06/26 06:52:20;;;;;;;18.55;16.75;;;18.50;99.90;;;;;;5002375;28;20129;-85
2022/06/26 06:54:45;;;;;;;17.02;15.32;;;18.40;99.90;;;;;;5020336;28;20096;-86
2022/06/26 06:57:11;;;;;;;18.55;16.70;;;18.50;99.90;;;;;;5019012;28;20107;-86
2022/06/26 06:59:37;;;;;;;20.00;17.95;;;18.50;99.90;;;;;;4999995;28;20057;-86
2022/06/26 07:02:03;;;;;;;20.00;18.10;;;18.40;99.90;;;;;;4993226;28;20050;-86
2022/06/26 07:04:28;;;;;;;20.63;18.55;;;18.50;99.90;;;;;;4997581;28;20402;-87
2022/06/26 07:06:54;;;;;;;22.83;20.58;;;18.50;99.90;;;;;;5012938;28;20115;-85
2022/06/26 07:09:20;;;;;;;21.48;19.38;;;18.40;99.90;;;;;;4994041;28;20403;-86
2022/06/26 07:11:46;;;;;;;21.83;19.73;;;18.50;99.90;;;;;;5011813;28;20045;-86
2022/06/26 07:14:11;;;;;;;23.27;20.88;;;18.50;99.90;;;;;;5016369;28;20042;-87
2022/06/26 07:16:37;;;;;;;23.90;21.42;;;18.60;99.90;;;;;;5011601;28;20038;-87
2022/06/26 07:19:03;;;;;;;23.60;21.30;;;18.60;99.90;;;;;;5012617;28;20052;-87
2022/06/26 07:21:29;;;;;;;23.85;21.45;;;18.60;99.90;;;;;;4991517;28;20045;-87
2022/06/26 07:23:55;;;;;;;23.90;21.50;;;18.70;99.90;;;;;;4997806;28;20037;-86
2022/06/26 07:26:20;;;;;;;25.52;23.13;;;19.00;99.90;;;;;;4991913;28;20048;-85
2022/06/26 07:28:46;;;;;;;25.13;22.73;;;19.10;99.90;;;;;;5011668;28;20091;-85
2022/06/26 07:31:12;;;;;;;24.80;22.38;;;19.20;99.90;;;;;;4991167;28;20073;-84
2022/06/26 07:36:21;;;;;;;25.00;22.60;;;19.30;99.90;;;;;;5002890;28;20042;-84
2022/06/26 07:38:47;;;;;;;25.10;22.65;;;19.40;99.90;;;;;;5004931;28;20052;-85
2022/06/26 07:41:12;;;;;;;26.17;23.58;;;19.50;99.90;;;;;;4995756;28;20046;-83
2022/06/26 07:43:38;;;;;;;24.92;22.42;;;19.50;99.90;;;;;;4997365;28;20045;-84
2022/06/26 07:46:04;;;;;;;23.55;21.20;;;19.50;99.90;;;;;;4997455;28;20577;-84
2022/06/26 07:48:29;;;;;;;24.13;21.60;;;19.60;99.90;;;;;;5018022;28;20050;-84
2022/06/26 07:50:55;;;;;;;23.23;20.98;;;19.60;99.90;;;;;;4999465;28;20045;-85
2022/06/26 07:53:21;;;;;;;22.75;20.40;;;19.80;99.90;;;;;;5015291;28;20056;-87
2022/06/26 07:55:47;;;;;;;21.20;19.20;;;19.80;99.90;;;;;;4992785;28;20056;-86
2022/06/26 07:58:12;;;;;;;21.52;19.27;;;19.90;99.90;;;;;;4982016;28;20050;-86
2022/06/26 08:00:38;;;;;;;20.35;18.35;;;20.00;99.90;;;;;;5013751;28;20466;-86
2022/06/26 08:03:12;;;;;;;20.30;18.20;;;20.00;99.90;;;;;;4979922;28;20037;-85
2022/06/26 08:05:38;;;;;;;18.63;16.80;;;20.00;99.90;;;;;;5010582;28;20118;-86
2022/06/26 08:08:05;;;;;;;18.40;16.50;;;20.10;99.90;;;;;;4989045;28;20440;-85
2022/06/26 08:10:31;;;;;;;16.90;15.18;;;20.30;99.90;;;;;;4982980;28;20062;-85
2022/06/26 08:12:57;;;;;;;17.75;15.95;;;20.30;99.90;;;;;;5022565;28;20042;-85
2022/06/26 08:15:23;;;;;;;17.05;15.25;;;20.30;99.90;;;;;;5001071;28;20052;-85
2022/06/26 08:17:49;;;;;;;16.58;14.88;;;20.20;99.90;;;;;;5001867;28;20363;-85
2022/06/26 08:20:15;;;;;;;16.77;14.27;;;20.10;99.90;;;;;;4995554;28;20057;-85
2022/06/26 08:22:40;;;;;;;15.98;14.48;;;20.00;99.90;;;;;;5001667;28;20048;-85
2022/06/26 08:25:07;;;;;;;15.32;13.63;;;20.00;99.90;;;;;;5013790;28;20046;-82
2022/06/26 08:27:32;;;;;;;13.38;11.93;;;20.00;99.90;;;;;;5023702;28;20037;-84
2022/06/26 08:29:58;;;;;;;12.65;10.82;;;20.10;99.90;;;;;;4983613;28;20392;-85
2022/06/26 08:32:23;;;;;;;13.50;11.73;;;20.10;99.90;;;;;;5018095;28;20420;-85
2022/06/26 08:34:49;;;;;;;13.52;11.15;;;20.20;99.90;;;;;;4990980;28;20069;-86
2022/06/26 08:37:16;;;;;;;11.70;9.93;;;20.20;99.90;;;;;;5002935;28;20513;-87
2022/06/26 08:39:43;;;;;;;11.90;9.70;;;20.20;99.90;;;;;;5005028;28;20049;-85
2022/06/26 08:42:09;;;;;;;13.27;10.32;;;20.20;99.90;;;;;;4997145;28;20081;-86
2022/06/26 08:44:42;;;;;;;10.70;9.43;;;20.20;99.90;;;;;;4998825;28;20102;-86
2022/06/26 08:47:10;;;;;;;11.23;9.07;;;20.10;99.90;;;;;;5018070;28;20402;-85
2022/06/26 08:49:35;;;;;;;9.90;8.27;;;20.10;99.90;;;;;;4986132;28;20524;-85
2022/06/26 08:52:02;;;;;;;9.75;7.80;;;20.00;99.90;;;;;;4978785;28;20053;-86
2022/06/26 08:54:29;;;;;;;10.30;7.47;;;20.00;99.90;;;;;;5018318;28;20046;-87
2022/06/26 08:56:55;;;;;;;9.48;7.30;;;19.90;99.90;;;;;;4994815;28;20100;-85
2022/06/26 08:59:21;;;;;;;8.35;5.85;;;19.90;99.90;;;;;;5007212;28;20049;-84
2022/06/26 09:01:47;;;;;;;8.13;5.60;;;19.90;99.90;;;;;;4994180;28;20057;-87
2022/06/26 09:04:13;;;;;;;8.13;5.82;;;20.00;99.90;;;;;;4998388;28;20042;-83
2022/06/26 09:06:41;;;;;;;8.10;5.65;;;20.10;99.90;;;;;;4999057;28;20393;-85
2022/06/26 09:09:18;;;;;;;9.95;5.97;;;20.10;99.90;;;;;;4984556;28;20052;-85
2022/06/26 09:11:45;;;;;;;8.85;6.63;;;20.20;99.90;;;;;;5018543;28;20076;-86
2022/06/26 09:14:12;;;;;;;8.93;6.80;;;20.20;99.90;;;;;;4994694;28;20042;-86
2022/06/26 09:16:40;;;;;;;9.32;6.97;;;20.20;99.90;;;;;;4997019;28;20049;-85
2022/06/26 09:19:12;;;;;;;10.70;7.90;;;20.30;99.90;;;;;;4994001;28;20064;-85
2022/06/26 09:21:38;;;;;;;9.35;5.90;;;20.40;99.90;;;;;;5014941;28;20401;-87
2022/06/26 09:24:04;;;;;;;8.65;4.35;;;20.40;99.90;;;;;;5002546;28;20087;-84
2022/06/26 09:26:29;;;;;;;7.28;3.38;;;20.50;99.90;;;;;;4992275;28;20825;-85
2022/06/26 09:28:55;;;;;;;7.28;3.60;;;20.50;99.90;;;;;;5000818;28;20120;-85
2022/06/26 09:31:22;;;;;;;6.50;3.55;;;20.50;99.90;;;;;;5017949;28;20044;-85
2022/06/26 09:33:47;;;;;;;5.97;3.22;;;20.60;99.90;;;;;;5017251;28;20048;-85
2022/06/26 09:36:18;;;;;;;8.23;4.10;;;20.70;99.90;;;;;;5010792;28;20042;-85
2022/06/26 09:38:51;;;;;;;6.38;3.80;;;20.70;99.90;;;;;;5026332;28;20060;-86
2022/06/26 09:41:33;;;;;;;6.63;3.70;;;20.80;99.90;;;;;;5013674;28;20056;-86
2022/06/26 09:43:59;;;;;;;7.07;4.60;;;20.80;99.90;;;;;;4985948;28;20050;-84
2022/06/26 09:46:30;;;;;;;9.07;4.43;;;20.80;99.90;;;;;;4996978;28;20054;-86
2022/06/26 09:48:57;;;;;;;7.13;4.10;;;20.80;99.90;;;;;;5010973;28;20372;-84
2022/06/26 09:51:23;;;;;;;7.75;3.88;;;20.90;99.90;;;;;;4993721;28;20060;-85
2022/06/26 09:53:49;;;;;;;7.75;4.72;;;21.00;99.90;;;;;;5005662;28;20041;-84
2022/06/26 09:56:16;;;;;;;7.78;5.30;;;21.00;99.90;;;;;;4998441;28;20137;-86
2022/06/26 09:58:42;;;;;;;8.50;5.07;;;21.00;99.90;;;;;;5005181;28;20041;-85
2022/06/26 10:06:39;;;;;;;6.88;3.55;;;21.00;99.90;;;;;;5001931;28;20458;-94
2022/06/26 10:09:07;;;;;;;6.80;3.35;;;21.00;99.90;;;;;;4990093;28;20089;-88
2022/06/26 10:11:36;;;;;;;6.88;3.55;;;21.10;99.90;;;;;;4998044;28;20049;-86
2022/06/26 10:14:23;;;;;;;6.32;3.33;;;21.30;99.90;;;;;;4998951;28;20085;-85
2022/06/26 10:17:07;;;;;;;6.22;3.25;;;21.40;99.90;;;;;;5016079;28;20110;-86
2022/06/26 10:19:54;;;;;;;6.78;3.55;;;21.60;99.90;;;;;;4998882;28;20060;-86
2022/06/26 10:22:20;;;;;;;7.07;3.30;;;21.70;99.90;;;;;;4998713;28;20041;-86
2022/06/26 10:24:55;;;;;;;7.32;3.45;;;21.70;99.90;;;;;;4998319;28;20477;-86
2022/06/26 10:27:27;;;;;;;6.88;3.40;;;21.70;99.90;;;;;;5016418;28;20045;-86
2022/06/26 10:30:08;;;;;;;7.40;3.80;;;21.80;99.90;;;;;;5016662;28;20052;-87
2022/06/26 10:32:35;;;;;;;7.05;3.47;;;21.80;99.90;;;;;;4994707;28;20115;-84
2022/06/26 10:35:01;;;;;;;7.25;3.38;;;21.70;99.90;;;;;;5002979;28;20037;-85
2022/06/26 10:37:26;;;;;;;7.63;4.07;;;21.70;99.90;;;;;;4999675;28;20587;-85
2022/06/26 10:39:54;;;;;;;9.38;5.22;;;21.70;99.90;;;;;;5022020;28;20038;-91
2022/06/26 10:45:11;;;;;;;6.18;3.40;;;21.80;99.90;;;;;;4993726;28;20402;-91
2022/06/26 10:47:47;;;;;;;6.75;3.30;;;21.70;99.90;;;;;;5019132;28;20060;-93
2022/06/26 10:50:29;;;;;;;6.65;3.30;;;21.60;99.90;;;;;;4997853;28;20073;-87
2022/06/26 10:53:11;;;;;;;6.53;3.25;;;21.70;99.90;;;;;;4984570;28;20057;-88
2022/06/26 10:55:37;;;;;;;6.97;3.30;;;21.70;99.90;;;;;;5003874;28;20041;-87
2022/06/26 10:58:03;;;;;;;7.70;4.07;;;21.70;99.90;;;;;;4995105;28;20411;-87
2022/06/26 11:00:29;;;;;;;6.30;3.30;;;21.70;99.90;;;;;;4998768;28;20049;-87
2022/06/26 11:02:54;;;;;;;8.52;3.90;;;21.70;99.90;;;;;;4991025;28;20112;-87
2022/06/26 11:05:20;;;;;;;7.50;3.70;;;21.80;99.90;;;;;;4993960;28;20398;-87
2022/06/26 11:07:47;;;;;;;8.13;4.18;;;21.80;99.90;;;;;;5017290;28;20079;-89
2022/06/26 11:10:15;;;;;;;9.25;4.20;;;21.90;99.90;;;;;;5014266;28;20549;-92
2022/06/26 11:12:43;;;;;;;9.38;4.15;;;22.00;99.90;;;;;;4985630;28;20052;-88
2022/06/26 11:15:19;;;;;;;7.93;4.40;;;22.10;99.90;;;;;;4993775;28;20120;-87
2022/06/26 11:17:57;;;;;;;8.13;4.30;;;22.10;99.90;;;;;;5011096;28;20049;-87
2022/06/26 11:23:14;;;;;;;8.68;4.05;;;22.20;99.90;;;;;;4984980;28;20561;-90
2022/06/26 11:25:41;;;;;;;7.50;3.60;;;22.20;99.90;;;;;;4995890;28;20042;-89
2022/06/26 11:28:11;;;;;;;6.82;3.30;;;22.20;99.90;;;;;;4995009;28;20042;-87
2022/06/26 11:30:38;;;;;;;8.43;3.80;;;22.20;99.90;;;;;;5010260;28;20501;-87
2022/06/26 11:33:05;;;;;;;6.53;3.22;;;22.30;99.90;;;;;;5005501;28;20161;-91
2022/06/26 11:35:30;;;;;;;7.72;3.60;;;22.30;99.90;;;;;;4971585;28;20050;-89
2022/06/26 11:37:56;;;;;;;7.35;3.80;;;22.40;99.90;;;;;;5003628;28;20384;-90
2022/06/26 11:40:22;;;;;;;7.63;3.42;;;22.40;99.90;;;;;;5021399;28;20076;-91
2022/06/26 11:42:55;;;;;;;7.35;3.40;;;22.50;99.90;;;;;;5005154;28;20046;-91
2022/06/26 11:45:23;;;;;;;7.18;3.55;;;22.50;99.90;;;;;;4995228;28;20440;-89
2022/06/26 11:47:49;;;;;;;7.35;3.70;;;22.50;99.90;;;;;;4988493;28;20045;-89
2022/06/26 11:50:22;;;;;;;8.75;3.70;;;22.40;99.90;;;;;;4978655;28;20046;-89
2022/06/26 11:52:53;;;;;;;8.48;3.78;;;22.40;99.90;;;;;;4995610;28;20046;-89
2022/06/26 11:55:18;;;;;;;6.57;3.47;;;22.40;99.90;;;;;;5001831;28;20073;-91
2022/06/26 11:57:44;;;;;;;7.22;3.70;;;22.40;99.90;;;;;;4993494;28;20089;-90
2022/06/26 12:00:12;;;;;;;6.88;3.83;;;22.40;99.90;;;;;;4998950;28;20412;-89
2022/06/26 12:02:43;;;;;;;6.40;3.75;;;22.40;99.90;;;;;;4996169;28;20120;-88
2022/06/26 12:05:09;;;;;;;7.57;3.72;;;22.40;99.90;;;;;;4980125;28;20107;-89
2022/06/26 12:07:43;;;;;;;7.70;4.05;;;22.40;99.90;;;;;;4990266;28;20034;-90
2022/06/26 12:10:09;;;;;;;7.75;3.55;;;22.50;99.90;;;;;;4991420;28;20042;-89
2022/06/26 12:12:34;;;;;;;7.40;3.83;;;22.40;99.90;;;;;;4986327;28;20042;-91
2022/06/26 12:15:01;;;;;;;6.32;3.85;;;22.50;99.90;;;;;;4998251;28;20091;-90
2022/06/26 12:17:28;;;;;;;7.15;3.40;;;22.50;99.90;;;;;;4998323;28;20455;-89
2022/06/26 12:20:03;;;;;;;8.27;4.15;;;22.50;99.90;;;;;;4985382;28;20038;-90
2022/06/26 12:22:31;;;;;;;7.72;3.55;;;22.60;99.90;;;;;;4978496;28;20398;-91
2022/06/26 12:24:58;;;;;;;6.40;3.20;;;22.60;99.90;;;;;;5010375;28;20065;-91
2022/06/26 12:27:39;;;;;;;7.53;3.67;;;22.60;99.90;;;;;;4974153;28;20092;-91
2022/06/26 12:30:17;;;;;;;;;;;22.60;99.90;;;;;;5010926;28;20050;-92
2022/06/26 12:32:43;;;;;;;7.65;4.30;;;22.50;99.90;;;;;;5015710;28;19976;-91
2022/06/26 12:35:08;;;;;;;7.13;3.85;;;22.40;99.90;;;;;;4977913;28;20064;-89
2022/06/26 12:37:34;;;;;;;7.45;3.60;;;22.50;99.90;;;;;;5002392;28;20053;-88
2022/06/26 12:39:59;;;;;;;6.35;2.65;;;22.40;99.90;;;;;;5013632;28;20491;-91
2022/06/26 12:42:25;;;;;;;7.90;3.42;;;22.50;99.90;;;;;;4992661;28;20096;-91
2022/06/26 12:44:51;;;;;;;5.95;2.50;;;22.30;99.90;;;;;;4988254;28;20038;-91
2022/06/26 12:47:16;;;;;;;7.40;3.00;;;22.30;99.90;;;;;;5011438;28;20029;-91
2022/06/26 12:49:42;;;;;;;7.05;2.92;;;22.30;99.90;;;;;;4975746;28;20081;-90